sensor_id;sensor_type;location;lat;lon;timestamp;P1;durP1;ratioP1;P2;durP2;ratioP2
32533;SDS011;18973;48.580;8.912;2022-11-24T00:03:33;1.40;;;1.40;;
32533;SDS011;18973;48.580;8.912;2022-11-24T00:06:03;1.85;;;1.67;;
32533;SDS011;18973;48.580;8.912;2022-11-24T00:08:31;2.05;;;1.95;;
32533;SDS011;18973;48.580;8.912;2022-11-24T00:11:16;1.45;;;1.40;;
32533;SDS011;18973;48.580;8.912;2022-11-24T00:13:50;1.75;;;1.60;;
32533;SDS011;18973;48.580;8.912;2022-11-24T00:16:18;1.95;;;1.75;;
32533;SDS011;18973;48.580;8.912;2022-11-24T00:18:47;2.65;;;1.50;;
32533;SDS011;18973;48.580;8.912;2022-11-24T00:21:14;1.80;;;1.70;;
32533;SDS011;18973;48.580;8.912;2022-11-24T00:23:40;1.75;;;1.65;;
32533;SDS011;18973;48.580;8.912;2022-11-24T00:26:08;3.47;;;2.08;;
32533;SDS011;18973;48.580;8.912;2022-11-24T00:28:42;2.30;;;1.75;;
32533;SDS011;18973;48.580;8.912;2022-11-24T00:31:16;1.60;;;1.50;;
32533;SDS011;18973;48.580;8.912;2022-11-24T00:33:44;1.80;;;1.70;;
32533;SDS011;18973;48.580;8.912;2022-11-24T00:36:11;2.00;;;1.90;;
32533;SDS011;18973;48.580;8.912;2022-11-24T00:38:38;1.33;;;1.30;;
32533;SDS011;18973;48.580;8.912;2022-11-24T00:41:03;1.40;;;1.40;;
32533;SDS011;18973;48.580;8.912;2022-11-24T00:43:29;1.45;;;1.40;;
32533;SDS011;18973;48.580;8.912;2022-11-24T00:45:55;1.50;;;1.50;;
32533;SDS011;18973;48.580;8.912;2022-11-24T00:48:21;2.08;;;1.98;;
32533;SDS011;18973;48.580;8.912;2022-11-24T00:51:00;1.67;;;1.58;;
32533;SDS011;18973;48.580;8.912;2022-11-24T00:53:28;1.70;;;1.70;;
32533;SDS011;18973;48.580;8.912;2022-11-24T00:55:54;1.58;;;1.58;;
32533;SDS011;18973;48.580;8.912;2022-11-24T00:58:20;1.75;;;1.63;;
32533;SDS011;18973;48.580;8.912;2022-11-24T01:00:47;2.35;;;2.25;;
32533;SDS011;18973;48.580;8.912;2022-11-24T01:03:13;1.85;;;1.80;;
32533;SDS011;18973;48.580;8.912;2022-11-24T01:05:40;1.77;;;1.67;;
32533;SDS011;18973;48.580;8.912;2022-11-24T01:08:06;2.45;;;1.75;;
32533;SDS011;18973;48.580;8.912;2022-11-24T01:10:32;1.80;;;1.70;;
32533;SDS011;18973;48.580;8.912;2022-11-24T01:12:58;2.92;;;2.72;;
32533;SDS011;18973;48.580;8.912;2022-11-24T01:15:24;1.60;;;1.60;;
32533;SDS011;18973;48.580;8.912;2022-11-24T01:17:50;1.33;;;1.33;;
32533;SDS011;18973;48.580;8.912;2022-11-24T01:20:16;1.50;;;1.50;;
32533;SDS011;18973;48.580;8.912;2022-11-24T01:22:42;1.38;;;1.38;;
32533;SDS011;18973;48.580;8.912;2022-11-24T01:25:08;1.40;;;1.40;;
32533;SDS011;18973;48.580;8.912;2022-11-24T01:27:35;1.75;;;1.58;;
32533;SDS011;18973;48.580;8.912;2022-11-24T01:30:01;2.25;;;2.15;;
32533;SDS011;18973;48.580;8.912;2022-11-24T01:32:27;1.83;;;1.73;;
32533;SDS011;18973;48.580;8.912;2022-11-24T01:34:53;1.77;;;1.67;;
32533;SDS011;18973;48.580;8.912;2022-11-24T01:37:18;1.60;;;1.50;;
32533;SDS011;18973;48.580;8.912;2022-11-24T01:39:44;2.50;;;2.10;;
32533;SDS011;18973;48.580;8.912;2022-11-24T01:42:10;1.83;;;1.73;;
32533;SDS011;18973;48.580;8.912;2022-11-24T01:44:36;2.53;;;2.40;;
32533;SDS011;18973;48.580;8.912;2022-11-24T01:52:12;1.42;;;1.40;;
32533;SDS011;18973;48.580;8.912;2022-11-24T01:54:42;1.23;;;1.23;;
32533;SDS011;18973;48.580;8.912;2022-11-24T01:59:46;2.28;;;2.17;;
32533;SDS011;18973;48.580;8.912;2022-11-24T02:02:15;1.58;;;1.50;;
32533;SDS011;18973;48.580;8.912;2022-11-24T02:04:41;1.20;;;1.20;;
32533;SDS011;18973;48.580;8.912;2022-11-24T02:07:09;1.63;;;1.50;;
32533;SDS011;18973;48.580;8.912;2022-11-24T02:09:42;2.25;;;2.15;;
32533;SDS011;18973;48.580;8.912;2022-11-24T02:12:12;1.40;;;1.40;;
32533;SDS011;18973;48.580;8.912;2022-11-24T02:14:38;2.55;;;1.58;;
32533;SDS011;18973;48.580;8.912;2022-11-24T02:17:05;2.05;;;1.88;;
32533;SDS011;18973;48.580;8.912;2022-11-24T02:22:04;1.20;;;1.20;;
32533;SDS011;18973;48.580;8.912;2022-11-24T02:24:44;1.65;;;1.55;;
32533;SDS011;18973;48.580;8.912;2022-11-24T02:27:13;2.05;;;1.95;;
32533;SDS011;18973;48.580;8.912;2022-11-24T02:29:39;1.77;;;1.73;;
32533;SDS011;18973;48.580;8.912;2022-11-24T02:32:05;1.27;;;1.27;;
32533;SDS011;18973;48.580;8.912;2022-11-24T02:34:32;1.70;;;1.60;;
32533;SDS011;18973;48.580;8.912;2022-11-24T02:36:58;2.92;;;2.50;;
32533;SDS011;18973;48.580;8.912;2022-11-24T02:39:24;1.55;;;1.50;;
32533;SDS011;18973;48.580;8.912;2022-11-24T02:41:53;1.40;;;1.20;;
32533;SDS011;18973;48.580;8.912;2022-11-24T02:44:25;1.50;;;1.42;;
32533;SDS011;18973;48.580;8.912;2022-11-24T02:47:06;1.20;;;1.20;;
32533;SDS011;18973;48.580;8.912;2022-11-24T02:49:34;1.52;;;1.52;;
32533;SDS011;18973;48.580;8.912;2022-11-24T02:52:00;1.20;;;1.20;;
32533;SDS011;18973;48.580;8.912;2022-11-24T02:54:26;1.20;;;1.20;;
32533;SDS011;18973;48.580;8.912;2022-11-24T02:56:52;1.30;;;1.30;;
32533;SDS011;18973;48.580;8.912;2022-11-24T02:59:17;1.20;;;1.20;;
32533;SDS011;18973;48.580;8.912;2022-11-24T03:01:43;1.50;;;1.50;;
32533;SDS011;18973;48.580;8.912;2022-11-24T03:04:09;2.03;;;1.73;;
32533;SDS011;18973;48.580;8.912;2022-11-24T03:06:35;2.40;;;1.67;;
32533;SDS011;18973;48.580;8.912;2022-11-24T03:09:00;1.20;;;1.20;;
32533;SDS011;18973;48.580;8.912;2022-11-24T03:11:26;1.50;;;1.50;;
32533;SDS011;18973;48.580;8.912;2022-11-24T03:13:52;1.88;;;1.40;;
32533;SDS011;18973;48.580;8.912;2022-11-24T03:16:18;1.45;;;1.45;;
32533;SDS011;18973;48.580;8.912;2022-11-24T03:18:43;1.40;;;1.30;;
32533;SDS011;18973;48.580;8.912;2022-11-24T03:21:09;1.90;;;1.77;;
32533;SDS011;18973;48.580;8.912;2022-11-24T03:23:34;1.50;;;1.40;;
32533;SDS011;18973;48.580;8.912;2022-11-24T03:26:11;1.52;;;1.52;;
32533;SDS011;18973;48.580;8.912;2022-11-24T03:28:38;1.48;;;1.45;;
32533;SDS011;18973;48.580;8.912;2022-11-24T03:31:05;1.60;;;1.50;;
32533;SDS011;18973;48.580;8.912;2022-11-24T03:33:32;1.40;;;1.40;;
32533;SDS011;18973;48.580;8.912;2022-11-24T03:35:58;3.03;;;1.83;;
32533;SDS011;18973;48.580;8.912;2022-11-24T03:38:24;2.13;;;1.70;;
32533;SDS011;18973;48.580;8.912;2022-11-24T03:40:49;1.38;;;1.38;;
32533;SDS011;18973;48.580;8.912;2022-11-24T03:43:15;1.50;;;1.50;;
32533;SDS011;18973;48.580;8.912;2022-11-24T03:45:44;1.70;;;1.50;;
32533;SDS011;18973;48.580;8.912;2022-11-24T03:48:10;1.50;;;1.50;;
32533;SDS011;18973;48.580;8.912;2022-11-24T03:50:36;1.30;;;1.30;;
32533;SDS011;18973;48.580;8.912;2022-11-24T03:53:01;1.30;;;1.30;;
32533;SDS011;18973;48.580;8.912;2022-11-24T03:55:27;1.17;;;1.17;;
32533;SDS011;18973;48.580;8.912;2022-11-24T03:57:53;3.42;;;1.90;;
32533;SDS011;18973;48.580;8.912;2022-11-24T04:00:18;1.48;;;1.23;;
32533;SDS011;18973;48.580;8.912;2022-11-24T04:02:44;1.10;;;1.10;;
32533;SDS011;18973;48.580;8.912;2022-11-24T04:05:10;1.33;;;1.33;;
32533;SDS011;18973;48.580;8.912;2022-11-24T04:07:35;1.50;;;1.40;;
32533;SDS011;18973;48.580;8.912;2022-11-24T04:10:01;1.55;;;1.45;;
32533;SDS011;18973;48.580;8.912;2022-11-24T04:12:28;1.30;;;1.30;;
32533;SDS011;18973;48.580;8.912;2022-11-24T04:15:09;1.55;;;1.45;;
32533;SDS011;18973;48.580;8.912;2022-11-24T04:17:36;1.20;;;1.17;;
32533;SDS011;18973;48.580;8.912;2022-11-24T04:20:02;1.10;;;1.10;;
32533;SDS011;18973;48.580;8.912;2022-11-24T04:22:28;1.33;;;1.33;;
32533;SDS011;18973;48.580;8.912;2022-11-24T04:24:53;1.40;;;1.40;;
32533;SDS011;18973;48.580;8.912;2022-11-24T04:27:19;1.13;;;1.13;;
32533;SDS011;18973;48.580;8.912;2022-11-24T04:29:44;1.65;;;1.55;;
32533;SDS011;18973;48.580;8.912;2022-11-24T04:32:10;1.40;;;1.40;;
32533;SDS011;18973;48.580;8.912;2022-11-24T04:34:36;1.70;;;1.42;;
32533;SDS011;18973;48.580;8.912;2022-11-24T04:37:01;2.10;;;1.90;;
32533;SDS011;18973;48.580;8.912;2022-11-24T04:39:27;4.57;;;1.40;;
32533;SDS011;18973;48.580;8.912;2022-11-24T04:41:53;1.20;;;1.20;;
32533;SDS011;18973;48.580;8.912;2022-11-24T04:44:19;2.35;;;1.33;;
32533;SDS011;18973;48.580;8.912;2022-11-24T04:46:45;2.17;;;1.23;;
32533;SDS011;18973;48.580;8.912;2022-11-24T04:49:10;1.20;;;1.20;;
32533;SDS011;18973;48.580;8.912;2022-11-24T04:51:37;1.30;;;1.30;;
32533;SDS011;18973;48.580;8.912;2022-11-24T04:54:04;1.20;;;1.20;;
32533;SDS011;18973;48.580;8.912;2022-11-24T04:56:30;3.58;;;1.70;;
32533;SDS011;18973;48.580;8.912;2022-11-24T04:58:57;1.50;;;1.50;;
32533;SDS011;18973;48.580;8.912;2022-11-24T05:01:23;1.65;;;1.55;;
32533;SDS011;18973;48.580;8.912;2022-11-24T05:03:48;1.77;;;1.67;;
32533;SDS011;18973;48.580;8.912;2022-11-24T05:06:20;2.08;;;1.27;;
32533;SDS011;18973;48.580;8.912;2022-11-24T05:08:47;4.75;;;1.90;;
32533;SDS011;18973;48.580;8.912;2022-11-24T05:11:16;3.03;;;1.70;;
32533;SDS011;18973;48.580;8.912;2022-11-24T05:13:42;2.95;;;1.48;;
32533;SDS011;18973;48.580;8.912;2022-11-24T05:16:08;1.23;;;1.23;;
32533;SDS011;18973;48.580;8.912;2022-11-24T05:18:34;1.20;;;1.20;;
32533;SDS011;18973;48.580;8.912;2022-11-24T05:21:00;1.75;;;1.65;;
32533;SDS011;18973;48.580;8.912;2022-11-24T05:23:26;2.55;;;1.55;;
32533;SDS011;18973;48.580;8.912;2022-11-24T05:25:52;2.08;;;1.40;;
32533;SDS011;18973;48.580;8.912;2022-11-24T05:28:18;1.20;;;1.20;;
32533;SDS011;18973;48.580;8.912;2022-11-24T05:30:44;2.22;;;1.85;;
32533;SDS011;18973;48.580;8.912;2022-11-24T05:33:14;5.63;;;2.00;;
32533;SDS011;18973;48.580;8.912;2022-11-24T05:35:43;2.85;;;2.33;;
32533;SDS011;18973;48.580;8.912;2022-11-24T05:38:16;1.45;;;1.38;;
32533;SDS011;18973;48.580;8.912;2022-11-24T05:40:42;3.22;;;1.63;;
32533;SDS011;18973;48.580;8.912;2022-11-24T05:43:12;1.25;;;1.25;;
32533;SDS011;18973;48.580;8.912;2022-11-24T05:45:38;3.50;;;1.20;;
32533;SDS011;18973;48.580;8.912;2022-11-24T05:48:09;1.58;;;1.58;;
32533;SDS011;18973;48.580;8.912;2022-11-24T05:50:36;1.50;;;1.50;;
32533;SDS011;18973;48.580;8.912;2022-11-24T05:53:03;1.98;;;1.85;;
32533;SDS011;18973;48.580;8.912;2022-11-24T05:55:30;1.42;;;1.33;;
32533;SDS011;18973;48.580;8.912;2022-11-24T05:57:59;1.20;;;1.20;;
32533;SDS011;18973;48.580;8.912;2022-11-24T06:00:27;1.60;;;1.45;;
32533;SDS011;18973;48.580;8.912;2022-11-24T06:02:55;2.13;;;1.98;;
32533;SDS011;18973;48.580;8.912;2022-11-24T06:05:21;1.65;;;1.55;;
32533;SDS011;18973;48.580;8.912;2022-11-24T06:07:47;1.20;;;1.20;;
32533;SDS011;18973;48.580;8.912;2022-11-24T06:10:14;4.07;;;2.00;;
32533;SDS011;18973;48.580;8.912;2022-11-24T06:12:40;1.90;;;1.58;;
32533;SDS011;18973;48.580;8.912;2022-11-24T06:15:06;2.17;;;1.58;;
32533;SDS011;18973;48.580;8.912;2022-11-24T06:17:32;5.45;;;1.92;;
32533;SDS011;18973;48.580;8.912;2022-11-24T06:19:58;1.85;;;1.70;;
32533;SDS011;18973;48.580;8.912;2022-11-24T06:22:23;1.40;;;1.30;;
32533;SDS011;18973;48.580;8.912;2022-11-24T06:24:49;2.15;;;2.05;;
32533;SDS011;18973;48.580;8.912;2022-11-24T06:27:15;1.60;;;1.50;;
32533;SDS011;18973;48.580;8.912;2022-11-24T06:29:40;1.27;;;1.20;;
32533;SDS011;18973;48.580;8.912;2022-11-24T06:32:07;1.27;;;1.23;;
32533;SDS011;18973;48.580;8.912;2022-11-24T06:34:33;2.13;;;1.92;;
32533;SDS011;18973;48.580;8.912;2022-11-24T06:36:58;1.60;;;1.50;;
32533;SDS011;18973;48.580;8.912;2022-11-24T06:39:24;1.33;;;1.33;;
32533;SDS011;18973;48.580;8.912;2022-11-24T06:41:50;2.58;;;1.30;;
32533;SDS011;18973;48.580;8.912;2022-11-24T06:44:16;2.60;;;2.10;;
32533;SDS011;18973;48.580;8.912;2022-11-24T06:46:42;1.42;;;1.33;;
32533;SDS011;18973;48.580;8.912;2022-11-24T06:49:08;3.00;;;1.67;;
32533;SDS011;18973;48.580;8.912;2022-11-24T06:51:34;1.33;;;1.30;;
32533;SDS011;18973;48.580;8.912;2022-11-24T06:54:00;1.10;;;1.10;;
32533;SDS011;18973;48.580;8.912;2022-11-24T06:56:30;1.80;;;1.70;;
32533;SDS011;18973;48.580;8.912;2022-11-24T06:58:55;1.20;;;1.20;;
32533;SDS011;18973;48.580;8.912;2022-11-24T07:01:22;1.60;;;1.50;;
32533;SDS011;18973;48.580;8.912;2022-11-24T07:03:49;1.10;;;1.10;;
32533;SDS011;18973;48.580;8.912;2022-11-24T07:06:16;1.48;;;1.40;;
32533;SDS011;18973;48.580;8.912;2022-11-24T07:08:43;1.90;;;1.80;;
32533;SDS011;18973;48.580;8.912;2022-11-24T07:11:11;1.30;;;1.30;;
32533;SDS011;18973;48.580;8.912;2022-11-24T07:13:39;1.77;;;1.23;;
32533;SDS011;18973;48.580;8.912;2022-11-24T07:16:10;1.55;;;1.55;;
32533;SDS011;18973;48.580;8.912;2022-11-24T07:18:35;3.50;;;1.23;;
32533;SDS011;18973;48.580;8.912;2022-11-24T07:21:04;1.42;;;1.33;;
32533;SDS011;18973;48.580;8.912;2022-11-24T07:23:30;1.25;;;1.25;;
32533;SDS011;18973;48.580;8.912;2022-11-24T07:25:55;1.73;;;1.55;;
32533;SDS011;18973;48.580;8.912;2022-11-24T07:28:21;3.13;;;1.95;;
32533;SDS011;18973;48.580;8.912;2022-11-24T07:30:47;1.38;;;1.27;;
32533;SDS011;18973;48.580;8.912;2022-11-24T07:33:12;1.30;;;1.20;;
32533;SDS011;18973;48.580;8.912;2022-11-24T07:35:39;1.33;;;1.23;;
32533;SDS011;18973;48.580;8.912;2022-11-24T07:38:05;1.00;;;1.00;;
32533;SDS011;18973;48.580;8.912;2022-11-24T07:40:31;1.15;;;1.15;;
32533;SDS011;18973;48.580;8.912;2022-11-24T07:42:58;1.27;;;1.27;;
32533;SDS011;18973;48.580;8.912;2022-11-24T07:45:24;2.22;;;1.70;;
32533;SDS011;18973;48.580;8.912;2022-11-24T07:47:50;1.73;;;1.63;;
32533;SDS011;18973;48.580;8.912;2022-11-24T07:50:16;2.88;;;2.05;;
32533;SDS011;18973;48.580;8.912;2022-11-24T07:52:42;1.00;;;1.00;;
32533;SDS011;18973;48.580;8.912;2022-11-24T07:55:07;1.30;;;1.30;;
32533;SDS011;18973;48.580;8.912;2022-11-24T07:57:34;1.17;;;1.17;;
32533;SDS011;18973;48.580;8.912;2022-11-24T08:00:00;1.85;;;1.75;;
32533;SDS011;18973;48.580;8.912;2022-11-24T08:02:26;1.10;;;1.10;;
32533;SDS011;18973;48.580;8.912;2022-11-24T08:04:52;1.30;;;1.30;;
32533;SDS011;18973;48.580;8.912;2022-11-24T08:07:18;1.42;;;1.38;;
32533;SDS011;18973;48.580;8.912;2022-11-24T08:09:43;2.40;;;1.48;;
32533;SDS011;18973;48.580;8.912;2022-11-24T08:12:09;1.90;;;1.75;;
32533;SDS011;18973;48.580;8.912;2022-11-24T08:14:35;1.40;;;1.30;;
32533;SDS011;18973;48.580;8.912;2022-11-24T08:17:00;1.42;;;1.33;;
32533;SDS011;18973;48.580;8.912;2022-11-24T08:19:26;1.20;;;1.20;;
32533;SDS011;18973;48.580;8.912;2022-11-24T08:21:52;1.30;;;1.30;;
32533;SDS011;18973;48.580;8.912;2022-11-24T08:24:17;2.95;;;1.58;;
32533;SDS011;18973;48.580;8.912;2022-11-24T08:26:43;1.10;;;1.10;;
32533;SDS011;18973;48.580;8.912;2022-11-24T08:29:09;0.93;;;0.93;;
32533;SDS011;18973;48.580;8.912;2022-11-24T08:31:37;1.58;;;1.45;;
32533;SDS011;18973;48.580;8.912;2022-11-24T08:34:03;1.30;;;1.20;;
32533;SDS011;18973;48.580;8.912;2022-11-24T08:36:30;1.02;;;1.02;;
32533;SDS011;18973;48.580;8.912;2022-11-24T08:38:57;2.40;;;2.30;;
32533;SDS011;18973;48.580;8.912;2022-11-24T08:41:24;1.10;;;1.10;;
32533;SDS011;18973;48.580;8.912;2022-11-24T08:43:51;1.20;;;1.20;;
32533;SDS011;18973;48.580;8.912;2022-11-24T08:46:18;0.98;;;0.98;;
32533;SDS011;18973;48.580;8.912;2022-11-24T08:48:49;0.90;;;0.90;;
32533;SDS011;18973;48.580;8.912;2022-11-24T08:51:17;0.82;;;0.82;;
32533;SDS011;18973;48.580;8.912;2022-11-24T08:53:45;1.08;;;1.08;;
32533;SDS011;18973;48.580;8.912;2022-11-24T08:56:11;0.90;;;0.90;;
32533;SDS011;18973;48.580;8.912;2022-11-24T08:58:37;1.00;;;1.00;;
32533;SDS011;18973;48.580;8.912;2022-11-24T09:01:11;1.08;;;1.08;;
32533;SDS011;18973;48.580;8.912;2022-11-24T09:06:05;0.80;;;0.80;;
32533;SDS011;18973;48.580;8.912;2022-11-24T09:08:31;1.10;;;1.10;;
32533;SDS011;18973;48.580;8.912;2022-11-24T09:11:08;0.80;;;0.80;;
32533;SDS011;18973;48.580;8.912;2022-11-24T09:13:35;0.90;;;0.90;;
32533;SDS011;18973;48.580;8.912;2022-11-24T09:16:23;0.90;;;0.90;;
32533;SDS011;18973;48.580;8.912;2022-11-24T09:18:56;0.80;;;0.80;;
32533;SDS011;18973;48.580;8.912;2022-11-24T09:21:24;1.30;;;1.20;;
32533;SDS011;18973;48.580;8.912;2022-11-24T09:23:51;0.80;;;0.80;;
32533;SDS011;18973;48.580;8.912;2022-11-24T09:26:21;0.70;;;0.70;;
32533;SDS011;18973;48.580;8.912;2022-11-24T09:28:52;1.00;;;1.00;;
32533;SDS011;18973;48.580;8.912;2022-11-24T09:31:19;0.80;;;0.80;;
32533;SDS011;18973;48.580;8.912;2022-11-24T09:33:47;0.93;;;0.93;;
32533;SDS011;18973;48.580;8.912;2022-11-24T09:36:13;0.63;;;0.63;;
32533;SDS011;18973;48.580;8.912;2022-11-24T09:38:39;0.95;;;0.95;;
32533;SDS011;18973;48.580;8.912;2022-11-24T09:49:31;1.00;;;0.80;;
32533;SDS011;18973;48.580;8.912;2022-11-24T09:52:12;0.70;;;0.70;;
32533;SDS011;18973;48.580;8.912;2022-11-24T09:54:46;1.02;;;1.02;;
32533;SDS011;18973;48.580;8.912;2022-11-24T09:57:18;0.80;;;0.80;;
32533;SDS011;18973;48.580;8.912;2022-11-24T09:59:45;0.77;;;0.77;;
32533;SDS011;18973;48.580;8.912;2022-11-24T10:02:11;0.68;;;0.68;;
32533;SDS011;18973;48.580;8.912;2022-11-24T10:04:38;0.80;;;0.80;;
32533;SDS011;18973;48.580;8.912;2022-11-24T10:15:36;2.17;;;2.00;;
32533;SDS011;18973;48.580;8.912;2022-11-24T10:26:15;0.93;;;0.93;;
32533;SDS011;18973;48.580;8.912;2022-11-24T10:28:44;0.88;;;0.88;;
32533;SDS011;18973;48.580;8.912;2022-11-24T10:34:08;1.00;;;1.00;;
32533;SDS011;18973;48.580;8.912;2022-11-24T10:36:57;0.95;;;0.88;;
32533;SDS011;18973;48.580;8.912;2022-11-24T10:42:44;9.63;;;4.97;;
32533;SDS011;18973;48.580;8.912;2022-11-24T10:45:16;5.78;;;3.20;;
32533;SDS011;18973;48.580;8.912;2022-11-24T10:47:48;12.40;;;4.47;;
32533;SDS011;18973;48.580;8.912;2022-11-24T10:50:19;1.13;;;1.02;;
32533;SDS011;18973;48.580;8.912;2022-11-24T10:52:54;1.10;;;1.10;;
32533;SDS011;18973;48.580;8.912;2022-11-24T10:58:37;1.30;;;1.20;;
32533;SDS011;18973;48.580;8.912;2022-11-24T11:06:29;0.95;;;0.95;;
32533;SDS011;18973;48.580;8.912;2022-11-24T11:11:31;6.32;;;3.08;;
32533;SDS011;18973;48.580;8.912;2022-11-24T11:13:58;2.03;;;1.65;;
32533;SDS011;18973;48.580;8.912;2022-11-24T11:16:41;1.45;;;1.20;;
32533;SDS011;18973;48.580;8.912;2022-11-24T11:22:01;0.85;;;0.77;;
32533;SDS011;18973;48.580;8.912;2022-11-24T11:24:37;0.73;;;0.73;;
32533;SDS011;18973;48.580;8.912;2022-11-24T11:27:21;0.70;;;0.70;;
32533;SDS011;18973;48.580;8.912;2022-11-24T11:29:51;0.80;;;0.80;;
32533;SDS011;18973;48.580;8.912;2022-11-24T11:32:18;0.70;;;0.70;;
32533;SDS011;18973;48.580;8.912;2022-11-24T11:34:46;3.70;;;0.70;;
32533;SDS011;18973;48.580;8.912;2022-11-24T11:37:14;0.70;;;0.70;;
32533;SDS011;18973;48.580;8.912;2022-11-24T11:39:44;0.98;;;0.88;;
32533;SDS011;18973;48.580;8.912;2022-11-24T11:45:00;1.10;;;1.05;;
32533;SDS011;18973;48.580;8.912;2022-11-24T11:50:23;0.50;;;0.50;;
32533;SDS011;18973;48.580;8.912;2022-11-24T11:53:13;0.50;;;0.50;;
32533;SDS011;18973;48.580;8.912;2022-11-24T11:58:37;0.85;;;0.60;;
32533;SDS011;18973;48.580;8.912;2022-11-24T12:01:19;1.10;;;0.60;;
32533;SDS011;18973;48.580;8.912;2022-11-24T12:04:23;0.40;;;0.40;;
32533;SDS011;18973;48.580;8.912;2022-11-24T12:07:27;1.13;;;1.02;;
32533;SDS011;18973;48.580;8.912;2022-11-24T12:10:41;0.65;;;0.65;;
32533;SDS011;18973;48.580;8.912;2022-11-24T12:13:24;0.63;;;0.60;;
32533;SDS011;18973;48.580;8.912;2022-11-24T12:21:44;0.50;;;0.50;;
32533;SDS011;18973;48.580;8.912;2022-11-24T12:24:16;0.93;;;0.88;;
32533;SDS011;18973;48.580;8.912;2022-11-24T12:27:04;3.13;;;1.30;;
32533;SDS011;18973;48.580;8.912;2022-11-24T12:43:37;0.82;;;0.82;;
32533;SDS011;18973;48.580;8.912;2022-11-24T12:46:18;0.80;;;0.80;;
32533;SDS011;18973;48.580;8.912;2022-11-24T12:51:40;1.88;;;0.85;;
32533;SDS011;18973;48.580;8.912;2022-11-24T12:54:17;1.00;;;1.00;;
32533;SDS011;18973;48.580;8.912;2022-11-24T12:56:52;0.70;;;0.70;;
32533;SDS011;18973;48.580;8.912;2022-11-24T13:02:11;1.45;;;1.35;;
32533;SDS011;18973;48.580;8.912;2022-11-24T13:15:29;0.65;;;0.65;;
32533;SDS011;18973;48.580;8.912;2022-11-24T13:17:56;0.73;;;0.60;;
32533;SDS011;18973;48.580;8.912;2022-11-24T13:20:30;3.25;;;1.02;;
32533;SDS011;18973;48.580;8.912;2022-11-24T13:23:02;1.23;;;0.70;;
32533;SDS011;18973;48.580;8.912;2022-11-24T13:25:32;0.60;;;0.60;;
32533;SDS011;18973;48.580;8.912;2022-11-24T13:28:01;0.75;;;0.70;;
32533;SDS011;18973;48.580;8.912;2022-11-24T13:35:39;2.35;;;1.23;;
32533;SDS011;18973;48.580;8.912;2022-11-24T13:41:10;0.70;;;0.70;;
32533;SDS011;18973;48.580;8.912;2022-11-24T13:46:58;3.55;;;1.00;;
32533;SDS011;18973;48.580;8.912;2022-11-24T13:49:41;1.15;;;0.82;;
32533;SDS011;18973;48.580;8.912;2022-11-24T14:03:37;4.68;;;1.23;;
32533;SDS011;18973;48.580;8.912;2022-11-24T14:06:03;0.60;;;0.60;;
32533;SDS011;18973;48.580;8.912;2022-11-24T14:08:33;1.52;;;0.80;;
32533;SDS011;18973;48.580;8.912;2022-11-24T14:11:02;1.08;;;0.85;;
32533;SDS011;18973;48.580;8.912;2022-11-24T14:13:35;1.67;;;0.90;;
32533;SDS011;18973;48.580;8.912;2022-11-24T14:16:11;0.70;;;0.70;;
32533;SDS011;18973;48.580;8.912;2022-11-24T14:18:45;1.95;;;1.05;;
32533;SDS011;18973;48.580;8.912;2022-11-24T14:23:45;0.73;;;0.73;;
32533;SDS011;18973;48.580;8.912;2022-11-24T14:26:35;0.60;;;0.60;;
32533;SDS011;18973;48.580;8.912;2022-11-24T14:31:38;0.50;;;0.50;;
32533;SDS011;18973;48.580;8.912;2022-11-24T14:36:36;0.82;;;0.82;;
32533;SDS011;18973;48.580;8.912;2022-11-24T14:39:05;1.58;;;1.48;;
32533;SDS011;18973;48.580;8.912;2022-11-24T14:41:35;0.55;;;0.55;;
32533;SDS011;18973;48.580;8.912;2022-11-24T14:46:33;1.50;;;0.88;;
32533;SDS011;18973;48.580;8.912;2022-11-24T14:49:00;1.00;;;0.90;;
32533;SDS011;18973;48.580;8.912;2022-11-24T14:54:02;1.08;;;1.05;;
32533;SDS011;18973;48.580;8.912;2022-11-24T14:56:34;5.82;;;1.00;;
32533;SDS011;18973;48.580;8.912;2022-11-24T14:59:02;0.65;;;0.65;;
32533;SDS011;18973;48.580;8.912;2022-11-24T15:01:44;0.85;;;0.77;;
32533;SDS011;18973;48.580;8.912;2022-11-24T15:06:36;0.73;;;0.70;;
32533;SDS011;18973;48.580;8.912;2022-11-24T15:09:03;2.90;;;2.03;;
32533;SDS011;18973;48.580;8.912;2022-11-24T15:11:29;0.85;;;0.85;;
32533;SDS011;18973;48.580;8.912;2022-11-24T15:13:56;7.53;;;1.88;;
32533;SDS011;18973;48.580;8.912;2022-11-24T15:16:22;0.80;;;0.80;;
32533;SDS011;18973;48.580;8.912;2022-11-24T15:18:58;2.10;;;1.48;;
32533;SDS011;18973;48.580;8.912;2022-11-24T15:21:29;0.80;;;0.80;;
32533;SDS011;18973;48.580;8.912;2022-11-24T15:24:06;0.57;;;0.57;;
32533;SDS011;18973;48.580;8.912;2022-11-24T15:26:39;0.77;;;0.77;;
32533;SDS011;18973;48.580;8.912;2022-11-24T15:29:05;2.67;;;1.83;;
32533;SDS011;18973;48.580;8.912;2022-11-24T15:31:31;0.88;;;0.88;;
32533;SDS011;18973;48.580;8.912;2022-11-24T15:33:56;2.38;;;1.02;;
32533;SDS011;18973;48.580;8.912;2022-11-24T15:36:22;1.05;;;0.80;;
32533;SDS011;18973;48.580;8.912;2022-11-24T15:38:48;0.70;;;0.70;;
32533;SDS011;18973;48.580;8.912;2022-11-24T15:41:18;4.80;;;1.50;;
32533;SDS011;18973;48.580;8.912;2022-11-24T15:43:45;1.33;;;1.00;;
32533;SDS011;18973;48.580;8.912;2022-11-24T15:46:11;1.00;;;1.00;;
32533;SDS011;18973;48.580;8.912;2022-11-24T15:48:36;0.93;;;0.93;;
32533;SDS011;18973;48.580;8.912;2022-11-24T15:51:04;1.15;;;1.05;;
32533;SDS011;18973;48.580;8.912;2022-11-24T15:53:32;2.25;;;0.95;;
32533;SDS011;18973;48.580;8.912;2022-11-24T15:56:04;0.80;;;0.80;;
32533;SDS011;18973;48.580;8.912;2022-11-24T15:58:32;1.30;;;1.30;;
32533;SDS011;18973;48.580;8.912;2022-11-24T16:00:58;0.93;;;0.93;;
32533;SDS011;18973;48.580;8.912;2022-11-24T16:03:24;2.92;;;1.20;;
32533;SDS011;18973;48.580;8.912;2022-11-24T16:05:51;1.27;;;1.17;;
32533;SDS011;18973;48.580;8.912;2022-11-24T16:08:18;2.67;;;1.80;;
32533;SDS011;18973;48.580;8.912;2022-11-24T16:10:44;3.15;;;1.65;;
32533;SDS011;18973;48.580;8.912;2022-11-24T16:13:10;2.72;;;2.15;;
32533;SDS011;18973;48.580;8.912;2022-11-24T16:15:36;1.02;;;1.02;;
32533;SDS011;18973;48.580;8.912;2022-11-24T16:18:02;4.72;;;3.25;;
32533;SDS011;18973;48.580;8.912;2022-11-24T16:20:30;3.58;;;2.00;;
32533;SDS011;18973;48.580;8.912;2022-11-24T16:22:56;4.13;;;2.42;;
32533;SDS011;18973;48.580;8.912;2022-11-24T16:25:22;2.38;;;2.00;;
32533;SDS011;18973;48.580;8.912;2022-11-24T16:27:48;3.45;;;3.15;;
32533;SDS011;18973;48.580;8.912;2022-11-24T16:30:13;3.78;;;3.03;;
32533;SDS011;18973;48.580;8.912;2022-11-24T16:32:39;3.05;;;2.53;;
32533;SDS011;18973;48.580;8.912;2022-11-24T16:35:05;4.32;;;2.65;;
32533;SDS011;18973;48.580;8.912;2022-11-24T16:37:31;3.17;;;1.90;;
32533;SDS011;18973;48.580;8.912;2022-11-24T16:39:57;3.88;;;1.80;;
32533;SDS011;18973;48.580;8.912;2022-11-24T16:42:23;2.47;;;1.73;;
32533;SDS011;18973;48.580;8.912;2022-11-24T16:44:49;2.60;;;2.38;;
32533;SDS011;18973;48.580;8.912;2022-11-24T16:47:16;2.80;;;1.90;;
32533;SDS011;18973;48.580;8.912;2022-11-24T16:49:44;4.72;;;2.97;;
32533;SDS011;18973;48.580;8.912;2022-11-24T16:52:10;1.98;;;1.88;;
32533;SDS011;18973;48.580;8.912;2022-11-24T16:54:36;1.90;;;1.73;;
32533;SDS011;18973;48.580;8.912;2022-11-24T16:57:02;7.05;;;2.75;;
32533;SDS011;18973;48.580;8.912;2022-11-24T16:59:28;6.13;;;2.75;;
32533;SDS011;18973;48.580;8.912;2022-11-24T17:01:53;8.80;;;4.25;;
32533;SDS011;18973;48.580;8.912;2022-11-24T17:04:19;6.20;;;4.28;;
32533;SDS011;18973;48.580;8.912;2022-11-24T17:06:45;4.78;;;3.45;;
32533;SDS011;18973;48.580;8.912;2022-11-24T17:09:10;7.55;;;3.50;;
32533;SDS011;18973;48.580;8.912;2022-11-24T17:11:36;7.93;;;3.65;;
32533;SDS011;18973;48.580;8.912;2022-11-24T17:14:02;9.15;;;3.58;;
32533;SDS011;18973;48.580;8.912;2022-11-24T17:16:27;2.75;;;2.42;;
32533;SDS011;18973;48.580;8.912;2022-11-24T17:18:53;3.70;;;3.15;;